This is the latest recevied weather packets stored in our database for station/object LROP. If no packets are shown the sender has not sent any weather packets the latest 10 day(s).
| Time | Temp. | Humidity | Pressure | Rain* | Wind** | Luminosity | Snow |
|---|---|---|---|---|---|---|---|
| 1777176182 | 8.89° C | 76% | 1010 hPa | - | - | - | - |
| 1777175282 | 7.78° C | 87% | 1010 hPa | - | - | - | - |
| 1777174382 | 7.78° C | 87% | 1010 hPa | - | - | - | - |
| 1777173482 | 8.89° C | 66% | 1010 hPa | - | - | - | - |
| 1777172582 | 8.89° C | 66% | 1010 hPa | - | - | - | - |
| 1777171683 | 7.78° C | 71% | 1010 hPa | - | - | - | - |
| 1777170782 | 7.78° C | 71% | 1010 hPa | - | - | - | - |
| 1777169882 | 7.78° C | 71% | 1011 hPa | - | - | - | - |
| 1777168982 | 7.78° C | 71% | 1011 hPa | - | - | - | - |
| 1777168082 | 7.78° C | 71% | 1011 hPa | - | - | - | - |
| 1777167182 | 7.78° C | 71% | 1011 hPa | - | - | - | - |
| 1777166282 | 8.89° C | 66% | 1011 hPa | - | - | - | - |
| 1777165382 | -2.22° C | 93% | 1011 hPa | - | - | - | - |
| 1777164482 | 2.78° C | 87% | 1011 hPa | - | - | - | - |
| 1777163582 | 2.78° C | 87% | 1011 hPa | - | - | - | - |
| 1777162682 | 6.11° C | 81% | 1011 hPa | - | - | - | - |
| 1777161782 | 6.11° C | 81% | 1011 hPa | - | - | - | - |
| 1777160883 | 7.22° C | 81% | 1012 hPa | - | - | - | - |
| 1777159982 | 7.22° C | 81% | 1012 hPa | - | - | - | - |
| 1777159082 | 7.22° C | 76% | 1012 hPa | - | - | - | - |
| 1777158182 | 7.22° C | 76% | 1012 hPa | - | - | - | - |
| 1777157282 | 7.78° C | 76% | 1012 hPa | - | - | - | - |
| 1777156382 | 7.78° C | 76% | 1012 hPa | - | - | - | - |
| 1777155483 | 8.89° C | 76% | 1012 hPa | - | - | - | - |
| 1777154603 | 8.89° C | 76% | 1012 hPa | - | - | - | - |
* Rain since midnight (hover to see other rain measurements)
** Current wind speed in m/s (hover to see current wind gust speed)